LIMJ/GOA METAR and TAF weather

Enter ICAO airport designator
Station Type Date Time Source
LIMJ METAR 2022/06/28 07:50 UTC NOAA

LIMJ 280750Z 28006KT 250V040 CAVOK 28/21 Q1012


Station Type Date Time Source
LIMJ Decoded METAR 2022/06/28 07:50 UTC NOAA

Genova / Sestri, Italy (LIMJ) 44-25N 008-51E 3M
Jun 28, 2022 - 03:50 AM EDT / 2022.06.28 0750 UTC
Wind: from the W (280 degrees) at 7 MPH (6 KT) (direction variable):0
Visibility: greater than 7 mile(s):0
Temperature: 82 F (28 C)
Dew Point: 69 F (21 C)
Relative Humidity: 65%
Pressure (altimeter): 29.88 in. Hg (1012 hPa)
ob: LIMJ 280750Z 28006KT 250V040 CAVOK 28/21 Q1012
cycle: 8

Station Type Date Time Source
LIMJ TAF 2022/06/28 06:28 UTC NOAA

TAF LIMJ 280500Z 2806/2906 03010KT 9999 FEW030
TEMPO 2812/2820 3000 TSRA
BECMG 2819/2821 VRB05KT

Example: see airport list